Beverly Hills, CA (90209)

3:51 PM PDT on July 26, 2016 (GMT -0700)
MacDumes - Park La Brea | | Change Station

Elev 217 ft 34.07 °N, 118.35 °W | Updated 18 seconds ago

Clear
Clear
92.1 °F
Feels Like 93 °F
N
0.0
Wind Variable Wind from SSE
Gusts 0.7 mph

Today
High -- | Low -- °F
--% Chance of Precip.
Yesterday
High -- | Low -- °F
Precip. -- in
Pressure 29.86 in
Visibility 10.0 miles
Clouds Clear
Heat Index 93 °F
Dew Point 63 °F
Humidity 38%
Rainfall 0.00 in
Snow Depth Not available.
6:01 AM 7:58 PM
Waning Gibbous, 50% visible
METAR KSMO 262151Z 24010KT 10SM CLR 24/18 A2986 RMK AO2 SLP111 T02440178
Pressure 29.86 in
Visibility 10.0 miles
Clouds Clear
Heat Index 93 °F
Dew Point 63 °F
Humidity 38%
Rainfall 0.00 in
Snow Depth Not available.
6:01 AM 7:58 PM
Waning Gibbous, 50% visible
METAR KSMO 262151Z 24010KT 10SM CLR 24/18 A2986 RMK AO2 SLP111 T02440178

10-Day Weather Forecast

Almanac

Astronomy

Jul. 26, 2016 Rise Set
Actual Time
Civil Twilight
Nautical Twilight
Astronomical Twilight
Moon
Length of Visible Light
Length of Day
Tomorrow will be .
, % of the Moon is Illuminated

Today's Extremes

State Highs State Lows

Community

WunderPhotos

Upload Photos

1,927,728 photos uploaded!

WunderBlog® & News

Nearby

Air Quality

  Air Quality AQ Index Pollutant
Not available.

Snow Depth

Station Depth Elevation

Earthquake Activity

City Distance Mag. Time & Date
Minimum magnitude displayed is 2.5.

Coastal Water Temperatures

Place Temperature

Stations

Nearby Weather Stations

Station Location Temp. Windchill Dew Point Humidity Wind Precip. Elev Updated Type
                   

Watches & Warnings

There are currently no watches in effect.